createdAt,value
2023-02-15T00:01:51.250Z,97259.19
2023-02-15T00:04:20.780Z,97296.81
2023-02-15T00:06:47.422Z,97275.91
2023-02-15T00:09:13.950Z,97283.19
2023-02-15T00:11:41.173Z,97281.53
2023-02-15T00:14:14.067Z,97292.84
2023-02-15T00:16:41.787Z,97283.97
2023-02-15T00:19:09.456Z,97293.00
2023-02-15T00:21:37.150Z,97285.06
2023-02-15T00:24:05.860Z,97238.13
2023-02-15T00:26:33.100Z,97284.13
2023-02-15T00:29:00.514Z,97284.84
2023-02-15T00:31:29.101Z,97286.59
2023-02-15T00:33:56.093Z,97278.09
2023-02-15T00:36:22.527Z,97267.97
2023-02-15T00:38:49.090Z,97281.16
2023-02-15T00:41:16.968Z,97280.47
2023-02-15T00:43:43.405Z,97278.03
2023-02-15T00:46:09.923Z,97256.28
2023-02-15T00:48:36.439Z,97277.78
2023-02-15T00:51:04.286Z,97245.13
2023-02-15T00:53:31.897Z,97278.50
2023-02-15T00:55:58.787Z,97257.47
2023-02-15T00:58:26.347Z,97267.78
2023-02-15T01:00:53.683Z,97242.34
2023-02-15T01:03:21.423Z,97235.44
2023-02-15T01:05:49.932Z,97262.38
2023-02-15T01:08:17.237Z,97255.50
2023-02-15T01:10:44.998Z,97248.22
2023-02-15T01:13:11.470Z,97238.44
2023-02-15T01:15:38.005Z,97242.00
2023-02-15T01:18:04.761Z,97222.31
2023-02-15T01:20:31.331Z,97234.75
2023-02-15T01:22:58.296Z,97235.03
2023-02-15T01:25:25.704Z,97237.25
2023-02-15T01:27:52.483Z,97244.41
2023-02-15T01:30:19.448Z,97248.81
2023-02-15T01:32:45.964Z,97222.03
2023-02-15T01:35:12.478Z,97242.88
2023-02-15T01:37:38.992Z,97223.03
2023-02-15T01:40:12.481Z,97217.38
2023-02-15T01:42:39.135Z,97241.78
2023-02-15T01:45:19.031Z,97209.84
2023-02-15T01:47:52.148Z,97226.34
2023-02-15T01:50:45.525Z,97207.00
2023-02-15T01:53:24.758Z,97216.44
2023-02-15T01:56:06.089Z,97212.44
2023-02-15T01:58:33.209Z,97222.63
2023-02-15T02:01:01.875Z,97220.00
2023-02-15T02:03:48.819Z,97228.78
2023-02-15T02:06:15.569Z,97215.53
2023-02-15T02:08:43.863Z,97218.63
2023-02-15T02:11:12.075Z,97208.31
2023-02-15T02:13:40.433Z,97207.25
2023-02-15T02:16:14.004Z,97211.13
2023-02-15T02:18:54.550Z,97204.00
2023-02-15T02:21:36.792Z,97211.13
2023-02-15T02:24:24.200Z,97211.38
2023-02-15T02:27:09.863Z,97204.06
2023-02-15T02:30:03.852Z,97203.63
2023-02-15T02:32:52.174Z,97209.00
2023-02-15T02:35:34.064Z,97195.75
2023-02-15T02:38:24.035Z,97193.50
2023-02-15T02:41:25.350Z,97203.06
2023-02-15T02:44:19.340Z,97208.69
2023-02-15T02:46:58.356Z,97191.75
2023-02-15T02:49:31.506Z,97203.31
2023-02-15T02:52:03.189Z,97203.81
2023-02-15T02:54:32.084Z,97181.91
2023-02-15T02:57:04.530Z,97205.94
2023-02-15T02:59:37.460Z,97201.28
2023-02-15T03:02:14.903Z,97195.94
2023-02-15T03:04:46.884Z,97181.91
2023-02-15T03:07:22.868Z,97205.22
2023-02-15T03:09:53.814Z,97192.97
2023-02-15T03:12:22.939Z,97199.88
2023-02-15T03:14:55.777Z,97194.03
2023-02-15T03:17:24.711Z,97198.78
2023-02-15T03:19:54.641Z,97198.59
2023-02-15T03:22:27.445Z,97190.41
2023-02-15T03:25:03.168Z,97177.00
2023-02-15T03:27:48.249Z,97184.50
2023-02-15T03:30:19.583Z,97190.63
2023-02-15T03:32:48.165Z,97186.25
2023-02-15T03:35:15.029Z,97186.56
2023-02-15T03:38:02.615Z,97190.41
2023-02-15T03:40:56.788Z,97166.03
2023-02-15T03:43:52.684Z,97185.75
2023-02-15T03:46:28.615Z,97198.69
2023-02-15T03:49:22.093Z,97203.06
2023-02-15T03:51:51.339Z,97206.16
2023-02-15T03:54:46.699Z,97185.50
2023-02-15T03:57:33.799Z,97189.56
2023-02-15T04:00:20.854Z,97197.28
2023-02-15T04:03:06.710Z,97189.09
2023-02-15T04:05:33.199Z,97185.72
2023-02-15T04:07:59.681Z,97192.00
2023-02-15T04:10:44.844Z,97187.97
2023-02-15T04:13:11.351Z,97173.91
2023-02-15T04:15:56.574Z,97182.66
2023-02-15T04:18:28.826Z,97182.28
2023-02-15T04:21:13.636Z,97181.25
2023-02-15T04:23:58.721Z,97191.22
2023-02-15T04:26:25.154Z,97196.06
2023-02-15T04:28:51.798Z,97183.44
2023-02-15T04:31:18.330Z,97192.13
2023-02-15T04:33:44.848Z,97194.00
2023-02-15T04:36:11.337Z,97196.44
2023-02-15T04:38:37.762Z,97187.91
2023-02-15T04:41:04.193Z,97189.41
2023-02-15T04:43:30.611Z,97190.03
2023-02-15T04:45:57.138Z,97193.88
2023-02-15T04:48:23.680Z,97182.88
2023-02-15T04:50:50.117Z,97189.03
2023-02-15T04:53:18.294Z,97171.56
2023-02-15T04:55:44.825Z,97192.03
2023-02-15T04:58:11.389Z,97190.69
2023-02-15T05:00:37.839Z,97170.19
2023-02-15T05:03:04.404Z,97189.16
2023-02-15T05:05:30.901Z,97186.84
2023-02-15T05:07:57.395Z,97193.88
2023-02-15T05:10:23.859Z,97176.63
2023-02-15T05:12:50.331Z,97186.75
2023-02-15T05:15:16.944Z,97172.69
2023-02-15T05:17:43.391Z,97180.34
2023-02-15T05:20:10.311Z,97193.25
2023-02-15T05:22:36.855Z,97185.47
2023-02-15T05:25:22.095Z,97146.31
2023-02-15T05:28:07.303Z,97182.69
2023-02-15T05:30:33.913Z,97198.66
2023-02-15T05:33:00.474Z,97195.47
2023-02-15T05:35:26.908Z,97202.38
2023-02-15T05:37:53.417Z,97189.16
2023-02-15T05:40:19.855Z,97192.16
2023-02-15T05:42:46.313Z,97178.31
2023-02-15T05:45:12.752Z,97193.25
2023-02-15T05:47:39.192Z,97187.22
2023-02-15T05:50:07.218Z,97200.63
2023-02-15T05:52:33.692Z,97183.91
2023-02-15T05:55:01.180Z,97184.41
2023-02-15T05:57:27.957Z,97193.16
2023-02-15T05:59:54.388Z,97187.00
2023-02-15T06:02:20.916Z,97212.94
2023-02-15T06:04:47.432Z,97170.41
2023-02-15T06:07:14.149Z,97198.25
2023-02-15T06:09:40.797Z,97206.78
2023-02-15T06:12:07.414Z,97200.84
2023-02-15T06:14:33.945Z,97193.25
2023-02-15T06:17:00.431Z,97190.44
2023-02-15T06:19:26.914Z,97201.66
2023-02-15T06:21:53.339Z,97186.28
2023-02-15T06:24:19.781Z,97209.19
2023-02-15T06:26:46.280Z,97204.22
2023-02-15T06:29:12.716Z,97189.03
2023-02-15T06:31:39.346Z,97192.97
2023-02-15T06:34:05.928Z,97209.41
2023-02-15T06:36:32.852Z,97202.00
2023-02-15T06:38:59.504Z,97230.03
2023-02-15T06:41:25.941Z,97225.88
2023-02-15T06:43:52.543Z,97223.06
2023-02-15T06:46:19.030Z,97219.09
2023-02-15T06:48:45.533Z,97218.16
2023-02-15T06:51:12.236Z,97225.06
2023-02-15T06:53:38.784Z,97196.22
2023-02-15T06:56:09.809Z,97211.13
2023-02-15T06:58:40.836Z,97200.63
2023-02-15T07:01:08.248Z,97237.03
2023-02-15T07:03:35.594Z,97230.03
2023-02-15T07:06:06.671Z,97235.91
2023-02-15T07:08:33.148Z,97226.00
2023-02-15T07:11:19.560Z,97217.00
2023-02-15T07:13:46.921Z,97218.03
2023-02-15T07:16:14.077Z,97219.09
2023-02-15T07:18:41.085Z,97232.69
2023-02-15T07:21:10.848Z,97234.63
2023-02-15T07:23:38.584Z,97236.41
2023-02-15T07:26:06.599Z,97227.22
2023-02-15T07:28:34.653Z,97220.19
2023-02-15T07:31:05.969Z,97232.09
2023-02-15T07:33:33.319Z,97226.28
2023-02-15T07:36:03.261Z,97213.34
2023-02-15T07:38:35.465Z,97205.84
2023-02-15T07:41:08.079Z,97208.09
2023-02-15T07:43:37.330Z,97224.16
2023-02-15T07:46:09.869Z,97216.72
2023-02-15T07:48:37.202Z,97206.75
2023-02-15T07:51:05.518Z,97218.41
2023-02-15T07:53:32.575Z,97218.03
2023-02-15T07:56:03.940Z,97206.94
2023-02-15T07:58:49.624Z,97200.34
2023-02-15T08:01:16.140Z,97200.78
2023-02-15T08:03:42.652Z,97196.44
2023-02-15T08:06:09.278Z,97202.34
2023-02-15T08:08:36.432Z,97199.75
2023-02-15T08:11:25.968Z,97210.94
2023-02-15T08:14:03.257Z,97219.69
2023-02-15T08:16:36.160Z,97203.16
2023-02-15T08:19:08.809Z,97202.59
2023-02-15T08:21:37.009Z,97213.84
2023-02-15T08:24:05.030Z,97218.00
2023-02-15T08:26:32.505Z,97209.94
2023-02-15T08:28:59.869Z,97201.72
2023-02-15T08:31:26.720Z,97190.09
2023-02-15T08:33:55.196Z,97193.69
2023-02-15T08:36:24.206Z,97193.50
2023-02-15T08:38:50.837Z,97194.50
2023-02-15T08:41:23.218Z,97192.59
2023-02-15T08:43:55.179Z,97178.47
2023-02-15T08:46:23.314Z,97209.06
2023-02-15T08:48:49.918Z,97198.53
2023-02-15T08:51:22.096Z,97209.59
2023-02-15T08:53:51.208Z,97206.56
2023-02-15T08:56:21.017Z,97204.88
2023-02-15T08:58:47.581Z,97209.09
2023-02-15T09:01:20.823Z,97209.69
2023-02-15T09:03:50.212Z,97200.84
2023-02-15T09:06:20.032Z,97186.34
2023-02-15T09:08:46.664Z,97159.72
2023-02-15T09:11:23.320Z,97205.47
2023-02-15T09:13:58.510Z,97186.41
2023-02-15T09:16:27.649Z,97209.38
2023-02-15T09:18:54.999Z,97191.56
2023-02-15T09:21:25.646Z,97203.28
2023-02-15T09:23:57.567Z,97180.75
2023-02-15T09:26:25.613Z,97169.28
2023-02-15T09:28:56.531Z,97172.03
2023-02-15T09:31:26.968Z,97199.81
2023-02-15T09:33:54.321Z,97195.50
2023-02-15T09:36:23.664Z,97178.44
2023-02-15T09:39:08.506Z,97183.16
2023-02-15T09:41:56.329Z,97199.34
2023-02-15T09:45:00.516Z,97199.09
2023-02-15T09:47:33.020Z,97202.81
2023-02-15T09:50:15.905Z,97199.91
2023-02-15T09:53:03.813Z,97202.25
2023-02-15T09:55:57.982Z,97201.47
2023-02-15T09:58:53.570Z,97191.44
2023-02-15T10:01:48.103Z,97198.03
2023-02-15T10:04:20.701Z,97204.66
2023-02-15T10:07:18.485Z,97194.38
2023-02-15T10:10:09.134Z,97198.13
2023-02-15T10:12:47.805Z,97203.66
2023-02-15T10:15:25.105Z,97200.53
2023-02-15T10:18:13.313Z,97201.97
2023-02-15T10:21:19.759Z,97183.94
2023-02-15T10:23:59.566Z,97181.41
2023-02-15T10:26:42.066Z,97191.25
2023-02-15T10:29:18.274Z,97164.97
2023-02-15T10:31:49.416Z,97189.09
2023-02-15T10:34:38.247Z,97191.34
2023-02-15T10:37:56.059Z,97186.13
2023-02-15T10:40:31.472Z,97186.31
2023-02-15T10:43:18.569Z,97165.09
2023-02-15T10:45:57.802Z,97178.72
2023-02-15T10:48:30.858Z,97177.75
2023-02-15T10:51:05.148Z,97166.72
2023-02-15T10:53:43.515Z,97174.53
2023-02-15T10:56:23.441Z,97156.06
2023-02-15T10:59:05.254Z,97169.13
2023-02-15T11:01:45.479Z,97161.28
2023-02-15T11:04:33.851Z,97160.69
2023-02-15T11:07:07.253Z,97144.41
2023-02-15T11:09:43.421Z,97155.44
2023-02-15T11:12:18.208Z,97130.16
2023-02-15T11:14:51.952Z,97131.97
2023-02-15T11:17:23.980Z,97141.59
2023-02-15T11:20:05.652Z,97130.50
2023-02-15T11:22:34.221Z,97120.06
2023-02-15T11:25:02.958Z,97124.44
2023-02-15T11:27:35.927Z,97125.63
2023-02-15T11:30:10.373Z,97120.81
2023-02-15T11:32:41.042Z,97107.56
2023-02-15T11:35:10.621Z,97115.34
2023-02-15T11:37:47.027Z,97115.69
2023-02-15T11:40:23.014Z,97091.03
2023-02-15T11:42:51.590Z,97103.38
2023-02-15T11:45:31.625Z,97105.59
2023-02-15T11:48:00.228Z,97080.13
2023-02-15T11:50:32.526Z,97090.13
2023-02-15T11:53:04.153Z,97089.38
2023-02-15T11:55:31.915Z,97075.50
2023-02-15T11:58:22.547Z,97076.16
2023-02-15T12:00:53.511Z,97072.72
2023-02-15T12:03:25.437Z,97054.97
2023-02-15T12:05:59.300Z,97054.09
2023-02-15T12:08:27.017Z,97054.53
2023-02-15T12:11:04.256Z,97063.69
2023-02-15T12:13:31.133Z,97042.03
2023-02-15T12:15:59.825Z,97056.19
2023-02-15T12:18:40.003Z,97049.50
2023-02-15T12:21:26.537Z,97047.72
2023-02-15T12:23:58.619Z,97050.84
2023-02-15T12:26:30.797Z,97041.25
2023-02-15T12:29:03.176Z,97036.75
2023-02-15T12:31:37.575Z,97027.13
2023-02-15T12:34:13.187Z,97016.13
2023-02-15T12:36:47.457Z,97022.63
2023-02-15T12:39:13.850Z,97024.50
2023-02-15T12:41:47.788Z,97023.16
2023-02-15T12:44:20.630Z,97019.06
2023-02-15T12:47:02.474Z,97016.19
2023-02-15T12:49:31.927Z,97022.31
2023-02-15T12:52:01.157Z,97012.41
2023-02-15T12:54:42.684Z,97017.59
2023-02-15T12:57:28.606Z,97014.84
2023-02-15T13:00:17.954Z,97009.53
2023-02-15T13:02:48.954Z,96997.53
2023-02-15T13:05:34.169Z,97002.91
2023-02-15T13:08:19.544Z,97001.91
2023-02-15T13:11:21.455Z,96992.66
2023-02-15T13:13:56.064Z,96993.41
2023-02-15T13:16:32.564Z,96983.44
2023-02-15T13:19:15.908Z,96984.75
2023-02-15T13:21:46.843Z,96975.75
2023-02-15T13:24:24.739Z,96974.59
2023-02-15T13:26:52.787Z,96956.56
2023-02-15T13:29:29.159Z,96970.88
2023-02-15T13:31:58.461Z,96953.22
2023-02-15T13:34:37.780Z,96968.09
2023-02-15T13:37:22.178Z,96969.13
2023-02-15T13:39:55.127Z,96960.50
2023-02-15T13:42:28.214Z,96966.09
2023-02-15T13:45:23.190Z,96959.41
2023-02-15T13:47:52.620Z,96976.03
2023-02-15T13:50:43.906Z,96971.03
2023-02-15T13:53:29.367Z,96971.03
2023-02-15T13:56:13.411Z,96988.47
2023-02-15T13:58:58.519Z,96980.63
2023-02-15T14:01:57.587Z,96979.94
2023-02-15T14:04:48.311Z,96970.88
2023-02-15T14:07:39.266Z,96968.41
2023-02-15T14:10:26.386Z,96972.03
2023-02-15T14:13:20.340Z,96956.03
2023-02-15T14:15:53.223Z,96969.94
2023-02-15T14:18:30.084Z,96968.28
2023-02-15T14:21:08.459Z,96968.28
2023-02-15T14:23:56.923Z,96965.00
2023-02-15T14:26:45.901Z,96961.22
2023-02-15T14:29:30.204Z,96966.09
2023-02-15T14:32:03.939Z,96946.31
2023-02-15T14:34:59.264Z,96957.34
2023-02-15T14:37:31.319Z,96936.22
2023-02-15T14:40:23.146Z,96950.66
2023-02-15T14:43:01.967Z,96952.94
2023-02-15T14:45:43.792Z,96943.25
2023-02-15T14:48:22.941Z,96946.84
2023-02-15T14:50:49.452Z,96925.75
2023-02-15T14:53:28.642Z,96959.84
2023-02-15T14:56:08.989Z,96955.47
2023-02-15T14:58:36.297Z,96946.75
2023-02-15T15:01:08.739Z,96938.97
2023-02-15T15:03:39.083Z,96954.22
2023-02-15T15:06:06.459Z,96936.72
2023-02-15T15:08:38.037Z,96928.28
2023-02-15T15:11:42.409Z,96952.91
2023-02-15T15:14:11.136Z,96936.09
2023-02-15T15:16:37.998Z,96949.63
2023-02-15T15:19:09.886Z,96937.69
2023-02-15T15:21:51.621Z,96950.91
2023-02-15T15:24:39.914Z,96951.75
2023-02-15T15:27:37.514Z,96962.66
2023-02-15T15:30:23.978Z,96952.03
2023-02-15T15:32:56.566Z,96961.88
2023-02-15T15:35:44.821Z,96960.72
2023-02-15T15:38:29.448Z,96962.56
2023-02-15T15:41:11.249Z,96964.03
2023-02-15T15:44:17.793Z,96968.50
2023-02-15T15:46:44.540Z,96961.34
2023-02-15T15:49:17.877Z,96971.00
2023-02-15T15:51:46.059Z,96976.06
2023-02-15T15:54:21.925Z,96963.34
2023-02-15T15:56:51.948Z,96964.56
2023-02-15T15:59:23.666Z,96967.63
2023-02-15T16:01:50.771Z,96978.50
2023-02-15T16:04:32.883Z,96974.47
2023-02-15T16:07:19.737Z,96956.69
2023-02-15T16:10:05.209Z,96976.72
2023-02-15T16:12:34.643Z,96962.50
2023-02-15T16:15:46.104Z,96985.81
2023-02-15T16:18:17.262Z,96977.03
2023-02-15T16:20:52.827Z,96977.47
2023-02-15T16:23:37.458Z,96989.50
2023-02-15T16:26:32.034Z,96995.50
2023-02-15T16:28:59.916Z,97005.34
2023-02-15T16:31:26.649Z,96995.69
2023-02-15T16:33:55.402Z,97008.13
2023-02-15T16:36:29.771Z,97002.91
2023-02-15T16:38:56.198Z,97002.31
2023-02-15T16:41:25.853Z,96998.88
2023-02-15T16:43:54.880Z,97001.06
2023-02-15T16:46:27.348Z,97010.22
2023-02-15T16:48:58.261Z,97012.63
2023-02-15T16:51:28.714Z,97014.78
2023-02-15T16:53:57.166Z,97013.22
2023-02-15T16:56:25.996Z,96982.50
2023-02-15T16:58:54.325Z,96991.28
2023-02-15T17:01:24.916Z,97006.28
2023-02-15T17:04:10.857Z,97018.09
2023-02-15T17:06:37.321Z,96997.66
2023-02-15T17:09:06.878Z,97017.50
2023-02-15T17:11:41.850Z,97020.50
2023-02-15T17:14:09.713Z,97022.13
2023-02-15T17:16:50.437Z,97026.47
2023-02-15T17:19:19.213Z,97029.25
2023-02-15T17:21:52.111Z,97021.44
2023-02-15T17:24:29.873Z,97001.56
2023-02-15T17:27:01.411Z,97023.22
2023-02-15T17:29:32.024Z,97035.25
2023-02-15T17:31:59.507Z,97033.66
2023-02-15T17:35:09.145Z,97046.75
2023-02-15T17:37:38.774Z,97038.16
2023-02-15T17:40:18.881Z,97046.53
2023-02-15T17:42:45.371Z,97026.47
2023-02-15T17:45:13.684Z,97008.22
2023-02-15T17:47:42.008Z,97010.81
2023-02-15T17:50:16.377Z,97017.66
2023-02-15T17:52:42.936Z,97020.28
2023-02-15T17:55:34.612Z,97031.75
2023-02-15T17:58:02.925Z,97022.56
2023-02-15T18:00:50.710Z,97039.22
2023-02-15T18:03:36.722Z,97047.34
2023-02-15T18:06:22.259Z,97045.16
2023-02-15T18:09:07.208Z,97051.16
2023-02-15T18:11:39.851Z,97039.25
2023-02-15T18:14:10.783Z,97050.72
2023-02-15T18:16:43.503Z,97048.09
2023-02-15T18:19:16.188Z,97038.78
2023-02-15T18:21:43.411Z,97035.94
2023-02-15T18:24:16.160Z,97038.78
2023-02-15T18:26:42.818Z,97019.72
2023-02-15T18:29:09.367Z,97032.88
2023-02-15T18:31:36.013Z,97053.94
2023-02-15T18:34:03.327Z,97042.16
2023-02-15T18:36:50.146Z,97054.97
2023-02-15T18:39:26.945Z,97054.22
2023-02-15T18:41:53.891Z,97057.56
2023-02-15T18:44:20.328Z,97044.88
2023-02-15T18:46:46.744Z,97023.59
2023-02-15T18:49:13.168Z,97042.88
2023-02-15T18:51:40.894Z,97031.66
2023-02-15T18:54:22.541Z,97047.75
2023-02-15T18:56:54.172Z,97034.66
2023-02-15T18:59:21.968Z,97047.69
2023-02-15T19:01:48.535Z,97056.19
2023-02-15T19:04:15.027Z,97047.28
2023-02-15T19:06:46.592Z,97057.28
2023-02-15T19:09:18.351Z,97025.78
2023-02-15T19:11:55.249Z,97064.31
2023-02-15T19:14:27.970Z,97044.25
2023-02-15T19:16:55.754Z,97062.16
2023-02-15T19:19:22.823Z,97056.53
2023-02-15T19:21:49.838Z,97055.19
2023-02-15T19:24:34.218Z,97050.13
2023-02-15T19:27:01.468Z,97061.16
2023-02-15T19:29:30.270Z,97052.66
2023-02-15T19:31:58.041Z,97066.56
2023-02-15T19:34:24.742Z,97052.88
2023-02-15T19:36:53.410Z,97065.38
2023-02-15T19:39:30.540Z,97068.97
2023-02-15T19:41:57.125Z,97055.13
2023-02-15T19:44:23.810Z,97046.84
2023-02-15T19:46:50.470Z,97048.84
2023-02-15T19:49:17.285Z,97045.00
2023-02-15T19:51:44.241Z,97050.84
2023-02-15T19:54:28.736Z,97061.28
2023-02-15T19:56:55.663Z,97069.06
2023-02-15T19:59:27.949Z,97068.41
2023-02-15T20:01:55.319Z,97046.00
2023-02-15T20:04:22.282Z,97022.06
2023-02-15T20:06:50.534Z,97043.91
2023-02-15T20:09:30.403Z,97045.75
2023-02-15T20:11:57.753Z,97032.59
2023-02-15T20:14:24.272Z,97025.88
2023-02-15T20:16:50.918Z,97037.19
2023-02-15T20:19:17.456Z,97029.56
2023-02-15T20:21:45.947Z,97043.03
2023-02-15T20:24:19.004Z,97045.94
2023-02-15T20:26:46.011Z,97033.94
2023-02-15T20:29:18.442Z,97040.69
2023-02-15T20:31:45.688Z,97034.28
2023-02-15T20:34:12.285Z,97029.47
2023-02-15T20:36:39.991Z,97034.56
2023-02-15T20:39:16.518Z,97013.06
2023-02-15T20:41:47.703Z,97032.28
2023-02-15T20:44:29.063Z,97031.22
2023-02-15T20:46:58.443Z,97028.16
2023-02-15T20:49:26.382Z,97028.41
2023-02-15T20:51:54.421Z,97014.00
2023-02-15T20:54:26.392Z,97026.13
2023-02-15T20:56:54.205Z,97008.72
2023-02-15T20:59:23.824Z,97035.75
2023-02-15T21:01:52.983Z,97037.69
2023-02-15T21:04:23.825Z,97029.56
2023-02-15T21:06:50.285Z,97035.03
2023-02-15T21:09:17.080Z,96997.88
2023-02-15T21:11:44.747Z,97035.97
2023-02-15T21:14:17.511Z,97029.31
2023-02-15T21:16:44.249Z,97022.88
2023-02-15T21:19:13.482Z,97038.69
2023-02-15T21:21:40.159Z,97011.03
2023-02-15T21:24:07.576Z,97019.44
2023-02-15T21:26:34.137Z,97044.72
2023-02-15T21:29:00.840Z,97041.06
2023-02-15T21:31:28.649Z,97041.81
2023-02-15T21:33:55.198Z,97044.28
2023-02-15T21:36:24.259Z,97047.47
2023-02-15T21:38:51.135Z,97039.53
2023-02-15T21:41:41.090Z,97025.00
2023-02-15T21:44:41.155Z,97047.47
2023-02-15T21:47:41.765Z,97049.47
2023-02-15T21:50:32.768Z,97046.03
2023-02-15T21:52:59.480Z,97036.88
2023-02-15T21:55:26.636Z,97041.56
2023-02-15T21:57:53.087Z,97019.00
2023-02-15T22:00:22.020Z,97034.47
2023-02-15T22:02:52.487Z,97024.03
2023-02-15T22:05:21.863Z,97027.84
2023-02-15T22:07:48.443Z,97020.81
2023-02-15T22:10:15.091Z,97025.63
2023-02-15T22:12:42.962Z,97024.81
2023-02-15T22:15:24.448Z,97040.88
2023-02-15T22:17:52.869Z,97036.63
2023-02-15T22:20:22.041Z,97006.72
2023-02-15T22:22:50.329Z,97013.47
2023-02-15T22:25:20.295Z,97018.91
2023-02-15T22:27:48.188Z,97016.81
2023-02-15T22:30:32.133Z,97018.09
2023-02-15T22:33:00.109Z,97006.75
2023-02-15T22:35:28.305Z,97003.66
2023-02-15T22:37:55.156Z,96989.41
2023-02-15T22:40:27.611Z,96977.06
2023-02-15T22:42:54.731Z,96971.25
2023-02-15T22:45:23.997Z,97003.38
2023-02-15T22:47:53.598Z,96991.28
2023-02-15T22:50:23.868Z,97004.13
2023-02-15T22:52:51.243Z,96990.28
2023-02-15T22:55:20.450Z,96981.91
2023-02-15T22:57:51.246Z,96990.03
2023-02-15T23:00:21.195Z,96993.19
2023-02-15T23:02:48.097Z,96994.88
2023-02-15T23:05:18.022Z,96989.16
2023-02-15T23:07:44.751Z,96970.59
2023-02-15T23:10:21.056Z,96979.03
2023-02-15T23:13:08.133Z,96987.44
2023-02-15T23:15:35.748Z,96980.78
2023-02-15T23:18:33.224Z,96991.63
2023-02-15T23:21:16.670Z,96996.09
2023-02-15T23:23:46.354Z,97000.16
2023-02-15T23:26:24.330Z,96994.53
2023-02-15T23:28:51.434Z,96994.09
2023-02-15T23:31:23.956Z,96995.25
2023-02-15T23:33:51.500Z,97003.13
2023-02-15T23:36:30.072Z,97002.66
2023-02-15T23:38:59.058Z,96989.28
2023-02-15T23:41:29.278Z,96993.50
2023-02-15T23:44:00.302Z,96981.25
2023-02-15T23:46:28.835Z,96981.63
2023-02-15T23:48:57.044Z,96980.00
2023-02-15T23:51:29.258Z,96981.84
2023-02-15T23:53:55.725Z,96966.28
2023-02-15T23:56:22.152Z,96972.47
2023-02-15T23:58:50.438Z,96962.94
